Terminal Aerodrome Forecast
Issued by NWS

Home | Current Version | Previous Version | Text Only | Print | Product List | Glossary On
Versions: 1 2 3 4 5 6 7 8 9 10 11 12 13 14
000
FTUS46 KLOX 061100
TAFWJF
TAF
KWJF 061128Z 0612/0712 24014G22KT P6SM BKN200
     FM061700 23022G32KT P6SM SKC
     FM062100 23028G38KT P6SM SKC
     FM070100 23020G30KT P6SM SKC
     FM070500 22015G25KT P6SM SKC=

USA.gov is the U.S. government's official web portal to all federal, state and local government web resources and services.